createdAt,value
2019-05-22T00:00:48.806Z,11.50
2019-05-22T00:03:19.223Z,11.50
2019-05-22T00:05:48.034Z,11.50
2019-05-22T00:08:17.492Z,11.50
2019-05-22T00:10:49.577Z,11.60
2019-05-22T00:13:22.507Z,11.50
2019-05-22T00:15:52.212Z,11.60
2019-05-22T00:18:22.312Z,11.50
2019-05-22T00:20:51.531Z,11.50
2019-05-22T00:23:19.795Z,11.60
2019-05-22T00:25:48.602Z,11.50
2019-05-22T00:28:17.644Z,11.40
2019-05-22T00:30:48.096Z,11.40
2019-05-22T00:33:16.911Z,11.40
2019-05-22T00:35:45.490Z,11.40
2019-05-22T00:38:14.947Z,11.40
2019-05-22T00:40:44.759Z,11.40
2019-05-22T00:43:14.526Z,11.40
2019-05-22T00:45:45.540Z,11.40
2019-05-22T00:48:16.515Z,11.40
2019-05-22T00:51:00.539Z,11.40
2019-05-22T00:53:41.834Z,11.40
2019-05-22T00:56:35.458Z,11.40
2019-05-22T00:59:08.438Z,11.40
2019-05-22T01:01:44.933Z,11.30
2019-05-22T01:04:14.451Z,11.40
2019-05-22T01:06:44.332Z,11.40
2019-05-22T01:09:18.617Z,11.40
2019-05-22T01:11:48.144Z,11.40
2019-05-22T01:14:17.658Z,11.30
2019-05-22T01:16:46.004Z,11.40
2019-05-22T01:19:16.033Z,11.40
2019-05-22T01:21:45.893Z,11.40
2019-05-22T01:24:14.722Z,11.40
2019-05-22T01:26:43.465Z,11.40
2019-05-22T01:29:12.137Z,11.40
2019-05-22T01:31:45.400Z,11.40
2019-05-22T01:34:15.377Z,11.40
2019-05-22T01:36:50.618Z,11.40
2019-05-22T01:39:31.160Z,11.40
2019-05-22T01:42:01.573Z,11.40
2019-05-22T01:44:30.324Z,11.40
2019-05-22T01:47:04.095Z,11.40
2019-05-22T01:49:33.351Z,11.40
2019-05-22T01:52:02.711Z,11.40
2019-05-22T01:54:31.282Z,11.30
2019-05-22T01:57:04.815Z,11.30
2019-05-22T01:59:33.967Z,11.30
2019-05-22T02:02:03.836Z,11.40
2019-05-22T02:04:32.090Z,11.40
2019-05-22T02:07:01.289Z,11.40
2019-05-22T02:09:31.281Z,11.30
2019-05-22T02:12:05.256Z,11.40
2019-05-22T02:14:34.095Z,11.40
2019-05-22T02:17:04.646Z,11.30
2019-05-22T02:19:32.855Z,11.40
2019-05-22T02:22:01.738Z,11.40
2019-05-22T02:24:30.633Z,11.40
2019-05-22T02:26:59.064Z,11.30
2019-05-22T02:29:29.268Z,11.40
2019-05-22T02:31:58.540Z,11.30
2019-05-22T02:34:28.319Z,11.30
2019-05-22T02:36:57.779Z,11.30
2019-05-22T02:39:35.098Z,11.30
2019-05-22T02:42:06.356Z,11.30
2019-05-22T02:44:37.168Z,11.30
2019-05-22T02:47:17.797Z,11.30
2019-05-22T02:49:35.793Z,11.30
2019-05-22T02:52:05.564Z,11.30
2019-05-22T02:54:34.007Z,11.40
2019-05-22T02:57:03.390Z,11.30
2019-05-22T02:59:31.627Z,11.30
2019-05-22T03:01:59.995Z,11.30
2019-05-22T03:04:31.274Z,11.30
2019-05-22T03:07:01.472Z,11.30
2019-05-22T03:09:31.872Z,11.30
2019-05-22T03:12:10.987Z,11.30
2019-05-22T03:14:39.799Z,11.30
2019-05-22T03:17:12.799Z,11.30
2019-05-22T03:19:43.692Z,11.40
2019-05-22T03:22:23.404Z,11.40
2019-05-22T03:24:52.895Z,11.40
2019-05-22T03:27:27.367Z,11.40
2019-05-22T03:29:56.301Z,11.40
2019-05-22T03:32:25.503Z,11.30
2019-05-22T03:34:54.834Z,11.20
2019-05-22T03:37:24.535Z,11.30
2019-05-22T03:39:53.169Z,11.30
2019-05-22T03:42:22.395Z,11.30
2019-05-22T03:44:52.873Z,11.20
2019-05-22T03:47:21.443Z,11.30
2019-05-22T03:49:49.686Z,11.20
2019-05-22T03:52:19.480Z,11.20
2019-05-22T03:54:47.921Z,11.20
2019-05-22T03:57:16.151Z,11.20
2019-05-22T03:59:45.272Z,11.20
2019-05-22T04:02:14.551Z,11.20
2019-05-22T04:04:42.879Z,11.20
2019-05-22T04:07:18.922Z,11.20
2019-05-22T04:09:48.688Z,11.20
2019-05-22T04:12:17.704Z,11.20
2019-05-22T04:14:46.469Z,11.20
2019-05-22T04:17:16.367Z,11.00
2019-05-22T04:19:49.961Z,10.90
2019-05-22T04:22:15.314Z,10.80
2019-05-22T04:24:44.348Z,10.70
2019-05-22T04:27:12.684Z,10.60
2019-05-22T04:29:41.275Z,10.60
2019-05-22T04:32:15.661Z,10.60
2019-05-22T04:34:44.796Z,10.60
2019-05-22T04:37:14.037Z,10.60
2019-05-22T04:39:43.857Z,10.60
2019-05-22T04:42:13.617Z,10.70
2019-05-22T04:44:44.063Z,10.80
2019-05-22T04:47:13.872Z,10.80
2019-05-22T04:49:42.821Z,10.80
2019-05-22T04:52:11.172Z,10.80
2019-05-22T04:54:39.454Z,10.80
2019-05-22T04:57:08.911Z,10.80
2019-05-22T04:59:37.807Z,10.70
2019-05-22T05:02:06.658Z,10.70
2019-05-22T05:04:35.539Z,10.80
2019-05-22T05:07:04.478Z,10.80
2019-05-22T05:09:32.971Z,10.70
2019-05-22T05:12:01.219Z,10.70
2019-05-22T05:14:29.452Z,10.70
2019-05-22T05:16:57.706Z,10.70
2019-05-22T05:19:26.146Z,10.70
2019-05-22T05:21:54.446Z,10.70
2019-05-22T05:24:23.016Z,10.80
2019-05-22T05:26:51.998Z,10.90
2019-05-22T05:29:27.270Z,10.90
2019-05-22T05:31:56.169Z,10.90
2019-05-22T05:34:46.323Z,10.80
2019-05-22T05:37:17.058Z,10.90
2019-05-22T05:40:08.956Z,10.90
2019-05-22T05:42:37.971Z,10.90
2019-05-22T05:45:07.684Z,10.90
2019-05-22T05:47:35.947Z,10.90
2019-05-22T05:50:06.544Z,10.80
2019-05-22T05:52:34.771Z,10.80
2019-05-22T05:55:03.648Z,10.80
2019-05-22T05:58:03.445Z,10.90
2019-05-22T06:00:35.727Z,11.00
2019-05-22T06:03:11.334Z,10.90
2019-05-22T06:05:39.867Z,10.90
2019-05-22T06:08:08.095Z,10.90
2019-05-22T06:10:59.632Z,10.80
2019-05-22T06:13:28.348Z,10.80
2019-05-22T06:16:29.262Z,10.90
2019-05-22T06:18:57.834Z,10.80
2019-05-22T06:21:26.192Z,10.90
2019-05-22T06:24:14.038Z,10.90
2019-05-22T06:26:46.964Z,10.90
2019-05-22T06:29:17.459Z,11.00
2019-05-22T06:32:05.774Z,11.00
2019-05-22T06:34:34.747Z,11.00
2019-05-22T06:37:06.067Z,11.00
2019-05-22T06:39:35.004Z,10.80
2019-05-22T06:42:04.860Z,10.90
2019-05-22T06:44:34.907Z,10.90
2019-05-22T06:47:04.178Z,10.90
2019-05-22T06:49:37.276Z,10.90
2019-05-22T06:52:06.248Z,10.90
2019-05-22T06:54:34.680Z,10.90
2019-05-22T06:57:05.510Z,10.90
2019-05-22T06:59:33.799Z,10.80
2019-05-22T07:02:02.465Z,10.70
2019-05-22T07:04:30.793Z,10.70
2019-05-22T07:06:59.670Z,10.70
2019-05-22T07:09:29.660Z,10.70
2019-05-22T07:11:58.382Z,10.70
2019-05-22T07:14:28.801Z,10.70
2019-05-22T07:16:57.970Z,10.80
2019-05-22T07:19:28.300Z,10.80
2019-05-22T07:21:57.311Z,10.70
2019-05-22T07:24:26.044Z,10.70
2019-05-22T07:26:55.763Z,10.80
2019-05-22T07:29:24.049Z,10.80
2019-05-22T07:31:52.349Z,10.80
2019-05-22T07:34:20.783Z,10.80
2019-05-22T07:36:49.037Z,10.90
2019-05-22T07:39:17.679Z,10.90
2019-05-22T07:41:46.104Z,11.10
2019-05-22T07:44:14.411Z,11.10
2019-05-22T07:46:42.675Z,11.10
2019-05-22T07:49:10.891Z,11.00
2019-05-22T07:51:51.862Z,11.00
2019-05-22T07:54:09.663Z,11.00
2019-05-22T07:56:38.508Z,10.90
2019-05-22T07:59:06.767Z,10.90
2019-05-22T08:01:35.502Z,10.70
2019-05-22T08:04:04.470Z,10.80
2019-05-22T08:06:32.738Z,10.70
2019-05-22T08:09:03.694Z,10.90
2019-05-22T08:11:32.221Z,10.90
2019-05-22T08:14:00.988Z,11.00
2019-05-22T08:16:29.538Z,11.00
2019-05-22T08:18:57.962Z,11.10
2019-05-22T08:21:26.522Z,11.20
2019-05-22T08:23:55.657Z,11.30
2019-05-22T08:26:24.577Z,11.40
2019-05-22T08:28:52.828Z,11.40
2019-05-22T08:31:23.022Z,11.60
2019-05-22T08:33:51.761Z,11.80
2019-05-22T08:36:20.379Z,11.80
2019-05-22T08:38:49.317Z,11.60
2019-05-22T08:41:19.269Z,11.60
2019-05-22T08:44:13.943Z,11.60
2019-05-22T08:46:18.024Z,11.50
2019-05-22T08:48:48.990Z,11.60
2019-05-22T08:51:17.271Z,11.70
2019-05-22T08:53:48.094Z,11.80
2019-05-22T08:56:15.508Z,12.00
2019-05-22T08:58:44.156Z,12.20
2019-05-22T09:01:13.935Z,12.30
2019-05-22T09:03:42.200Z,12.10
2019-05-22T09:06:11.300Z,12.30
2019-05-22T09:08:40.232Z,12.00
2019-05-22T09:11:09.446Z,12.10
2019-05-22T09:13:38.218Z,12.20
2019-05-22T09:16:08.057Z,12.30
2019-05-22T09:18:36.579Z,12.00
2019-05-22T09:21:06.182Z,11.90
2019-05-22T09:23:35.351Z,12.00
2019-05-22T09:26:03.686Z,11.90
2019-05-22T09:28:32.263Z,12.20
2019-05-22T09:31:01.133Z,12.20
2019-05-22T09:33:30.366Z,12.30
2019-05-22T09:35:58.667Z,12.40
2019-05-22T09:38:27.010Z,12.60
2019-05-22T09:40:55.221Z,12.70
2019-05-22T09:43:23.777Z,12.60
2019-05-22T09:45:52.088Z,12.60
2019-05-22T09:48:20.927Z,12.90
2019-05-22T09:50:50.376Z,13.20
2019-05-22T09:53:19.744Z,13.30
2019-05-22T09:55:48.038Z,13.30
2019-05-22T09:58:16.331Z,13.20
2019-05-22T10:00:44.818Z,13.10
2019-05-22T10:03:13.472Z,12.90
2019-05-22T10:05:42.542Z,12.70
2019-05-22T10:08:11.224Z,12.70
2019-05-22T10:10:40.223Z,12.80
2019-05-22T10:13:08.718Z,12.90
2019-05-22T10:15:37.596Z,13.00
2019-05-22T10:18:05.900Z,13.20
2019-05-22T10:20:35.072Z,13.40
2019-05-22T10:23:14.787Z,13.40
2019-05-22T10:25:34.998Z,13.40
2019-05-22T10:28:03.848Z,13.40
2019-05-22T10:30:32.237Z,13.40
2019-05-22T10:33:00.480Z,13.30
2019-05-22T10:35:31.560Z,13.20
2019-05-22T10:37:59.949Z,13.30
2019-05-22T10:40:28.522Z,13.20
2019-05-22T10:42:56.854Z,13.50
2019-05-22T10:45:25.882Z,13.50
2019-05-22T10:47:54.169Z,13.50
2019-05-22T10:50:22.858Z,13.80
2019-05-22T10:52:54.452Z,13.90
2019-05-22T10:55:22.582Z,13.90
2019-05-22T10:57:50.801Z,14.00
2019-05-22T11:00:19.878Z,14.10
2019-05-22T11:02:48.868Z,14.10
2019-05-22T11:05:19.294Z,14.30
2019-05-22T11:07:47.610Z,14.50
2019-05-22T11:10:17.099Z,14.20
2019-05-22T11:12:45.614Z,14.20
2019-05-22T11:15:14.727Z,14.00
2019-05-22T11:17:44.903Z,13.70
2019-05-22T11:20:14.243Z,13.60
2019-05-22T11:22:42.742Z,13.50
2019-05-22T11:25:12.958Z,13.80
2019-05-22T11:27:41.368Z,14.20
2019-05-22T11:30:10.043Z,14.50
2019-05-22T11:32:38.356Z,14.40
2019-05-22T11:35:07.579Z,14.50
2019-05-22T11:37:36.524Z,14.60
2019-05-22T11:40:05.526Z,14.60
2019-05-22T11:42:34.143Z,14.50
2019-05-22T11:45:02.949Z,14.60
2019-05-22T11:47:31.278Z,14.80
2019-05-22T11:49:59.665Z,15.00
2019-05-22T11:52:30.040Z,15.10
2019-05-22T11:54:58.327Z,15.20
2019-05-22T11:57:27.662Z,15.30
2019-05-22T11:59:56.095Z,15.30
2019-05-22T12:02:24.978Z,15.30
2019-05-22T12:04:53.973Z,15.50
2019-05-22T12:07:22.825Z,15.50
2019-05-22T12:09:51.142Z,15.50
2019-05-22T12:12:20.329Z,15.80
2019-05-22T12:14:48.660Z,16.00
2019-05-22T12:17:17.036Z,16.30
2019-05-22T12:19:45.904Z,16.20
2019-05-22T12:22:14.762Z,15.90
2019-05-22T12:24:43.557Z,15.70
2019-05-22T12:27:12.212Z,15.70
2019-05-22T12:29:42.167Z,15.70
2019-05-22T12:32:11.778Z,15.50
2019-05-22T12:34:40.706Z,15.40
2019-05-22T12:37:09.133Z,15.70
2019-05-22T12:39:38.872Z,15.90
2019-05-22T12:42:07.924Z,15.90
2019-05-22T12:44:37.071Z,16.10
2019-05-22T12:47:07.213Z,16.00
2019-05-22T12:49:35.643Z,16.10
2019-05-22T12:52:05.134Z,16.10
2019-05-22T12:54:46.175Z,15.80
2019-05-22T12:57:06.220Z,15.90
2019-05-22T12:59:34.757Z,16.10
2019-05-22T13:02:03.547Z,16.20
2019-05-22T13:04:33.021Z,16.30
2019-05-22T13:07:01.553Z,16.30
2019-05-22T13:09:29.877Z,16.60
2019-05-22T13:11:59.056Z,16.80
2019-05-22T13:14:27.407Z,16.70
2019-05-22T13:16:56.222Z,16.50
2019-05-22T13:19:26.465Z,16.50
2019-05-22T13:21:56.692Z,16.70
2019-05-22T13:24:25.979Z,16.90
2019-05-22T13:26:55.717Z,17.20
2019-05-22T13:29:25.390Z,17.40
2019-05-22T13:31:54.386Z,17.20
2019-05-22T13:34:23.972Z,16.70
2019-05-22T13:36:52.508Z,16.60
2019-05-22T13:39:22.983Z,16.70
2019-05-22T13:41:51.568Z,16.80
2019-05-22T13:44:21.527Z,17.00
2019-05-22T13:46:50.329Z,17.10
2019-05-22T13:49:18.871Z,16.80
2019-05-22T13:51:47.337Z,17.00
2019-05-22T13:54:16.395Z,16.80
2019-05-22T13:56:46.286Z,17.00
2019-05-22T13:59:15.876Z,17.00
2019-05-22T14:01:44.487Z,16.80
2019-05-22T14:04:13.016Z,16.50
2019-05-22T14:06:41.544Z,16.50
2019-05-22T14:09:13.648Z,16.60
2019-05-22T14:11:42.506Z,16.40
2019-05-22T14:14:11.152Z,16.60
2019-05-22T14:16:48.740Z,16.80
2019-05-22T14:19:10.029Z,17.00
2019-05-22T14:21:38.465Z,17.30
2019-05-22T14:24:07.403Z,17.60
2019-05-22T14:26:35.889Z,17.80
2019-05-22T14:29:04.455Z,17.90
2019-05-22T14:31:33.002Z,18.10
2019-05-22T14:34:01.735Z,17.80
2019-05-22T14:36:30.096Z,17.80
2019-05-22T14:38:58.674Z,17.90
2019-05-22T14:41:27.035Z,18.00
2019-05-22T14:43:55.435Z,17.50
2019-05-22T14:46:23.855Z,17.20
2019-05-22T14:48:52.797Z,17.20
2019-05-22T14:51:22.533Z,17.10
2019-05-22T14:53:52.270Z,17.20
2019-05-22T14:56:22.735Z,17.20
2019-05-22T14:58:52.505Z,17.30
2019-05-22T15:01:21.695Z,17.20
2019-05-22T15:03:50.769Z,17.30
2019-05-22T15:06:19.400Z,17.50
2019-05-22T15:08:47.948Z,17.50
2019-05-22T15:11:17.143Z,17.50
2019-05-22T15:13:45.706Z,17.50
2019-05-22T15:16:14.097Z,17.50
2019-05-22T15:18:42.505Z,17.50
2019-05-22T15:21:11.646Z,17.60
2019-05-22T15:23:41.040Z,17.80
2019-05-22T15:26:10.009Z,18.00
2019-05-22T15:28:38.555Z,17.80
2019-05-22T15:31:06.890Z,17.90
2019-05-22T15:33:36.425Z,17.80
2019-05-22T15:36:06.796Z,17.50
2019-05-22T15:38:37.547Z,17.30
2019-05-22T15:41:12.371Z,17.40
2019-05-22T15:43:52.187Z,17.40
2019-05-22T15:46:20.601Z,17.50
2019-05-22T15:48:54.822Z,17.60
2019-05-22T15:51:28.961Z,17.80
2019-05-22T15:54:02.136Z,17.90
2019-05-22T15:56:34.930Z,18.10
2019-05-22T15:59:08.582Z,18.30
2019-05-22T16:01:44.355Z,18.30
2019-05-22T16:04:16.066Z,18.20
2019-05-22T16:06:49.109Z,18.00
2019-05-22T16:09:24.101Z,17.90
2019-05-22T16:11:58.109Z,17.70
2019-05-22T16:14:32.339Z,17.60
2019-05-22T16:17:05.026Z,17.70
2019-05-22T16:19:38.735Z,17.80
2019-05-22T16:22:07.906Z,17.80
2019-05-22T16:24:37.996Z,17.90
2019-05-22T16:27:08.152Z,17.90
2019-05-22T16:29:37.108Z,17.90
2019-05-22T16:32:07.843Z,18.00
2019-05-22T16:34:37.493Z,18.10
2019-05-22T16:37:06.280Z,18.10
2019-05-22T16:39:37.062Z,18.20
2019-05-22T16:42:07.247Z,18.20
2019-05-22T16:44:35.744Z,18.30
2019-05-22T16:47:06.983Z,18.10
2019-05-22T16:49:37.369Z,18.10
2019-05-22T16:52:07.315Z,18.20
2019-05-22T16:54:37.251Z,18.10
2019-05-22T16:57:06.759Z,18.10
2019-05-22T16:59:37.172Z,18.20
2019-05-22T17:02:08.315Z,18.20
2019-05-22T17:04:37.007Z,18.20
2019-05-22T17:07:08.364Z,18.00
2019-05-22T17:09:37.600Z,18.00
2019-05-22T17:12:07.882Z,18.00
2019-05-22T17:14:37.051Z,18.20
2019-05-22T17:17:07.409Z,18.10
2019-05-22T17:19:36.325Z,18.00
2019-05-22T17:22:05.585Z,17.90
2019-05-22T17:24:34.537Z,17.90
2019-05-22T17:27:04.427Z,17.80
2019-05-22T17:29:33.755Z,17.60
2019-05-22T17:32:03.081Z,17.60
2019-05-22T17:34:35.342Z,17.50
2019-05-22T17:37:08.153Z,17.50
2019-05-22T17:39:39.754Z,17.50
2019-05-22T17:42:09.964Z,17.50
2019-05-22T17:44:39.177Z,17.50
2019-05-22T17:47:09.199Z,17.60
2019-05-22T17:49:38.171Z,17.60
2019-05-22T17:52:06.770Z,17.60
2019-05-22T17:54:35.462Z,17.50
2019-05-22T17:57:05.857Z,17.40
2019-05-22T17:59:34.599Z,17.40
2019-05-22T18:02:04.479Z,17.30
2019-05-22T18:04:33.031Z,17.30
2019-05-22T18:07:01.989Z,17.30
2019-05-22T18:09:30.824Z,17.30
2019-05-22T18:12:00.135Z,17.30
2019-05-22T18:14:29.226Z,17.20
2019-05-22T18:16:57.801Z,16.90
2019-05-22T18:19:27.342Z,16.70
2019-05-22T18:21:57.818Z,16.50
2019-05-22T18:24:27.308Z,16.40
2019-05-22T18:26:55.788Z,16.30
2019-05-22T18:29:28.516Z,16.20
2019-05-22T18:31:59.015Z,16.00
2019-05-22T18:34:30.033Z,15.90
2019-05-22T18:36:58.946Z,15.90
2019-05-22T18:39:30.184Z,15.70
2019-05-22T18:41:59.058Z,15.60
2019-05-22T18:44:29.166Z,15.40
2019-05-22T18:46:59.013Z,15.30
2019-05-22T18:49:29.042Z,15.20
2019-05-22T18:52:00.920Z,15.10
2019-05-22T18:54:31.124Z,15.00
2019-05-22T18:57:00.848Z,14.90
2019-05-22T18:59:31.656Z,14.90
2019-05-22T19:02:02.042Z,14.80
2019-05-22T19:04:32.567Z,14.70
2019-05-22T19:07:05.417Z,14.50
2019-05-22T19:09:37.744Z,14.50
2019-05-22T19:12:09.613Z,14.30
2019-05-22T19:14:42.076Z,14.20
2019-05-22T19:17:13.098Z,14.00
2019-05-22T19:19:45.081Z,13.90
2019-05-22T19:22:18.396Z,13.90
2019-05-22T19:24:50.134Z,13.70
2019-05-22T19:27:23.047Z,13.60
2019-05-22T19:29:57.801Z,13.40
2019-05-22T19:32:29.687Z,13.30
2019-05-22T19:35:03.081Z,13.20
2019-05-22T19:37:33.869Z,13.10
2019-05-22T19:40:06.051Z,13.00
2019-05-22T19:42:37.487Z,12.90
2019-05-22T19:45:11.757Z,12.80
2019-05-22T19:47:46.146Z,12.70
2019-05-22T19:50:23.230Z,12.70
2019-05-22T19:52:52.912Z,12.60
2019-05-22T19:55:23.921Z,12.50
2019-05-22T19:57:55.091Z,12.40
2019-05-22T20:00:28.540Z,12.30
2019-05-22T20:02:59.999Z,12.20
2019-05-22T20:05:30.391Z,12.20
2019-05-22T20:08:01.161Z,12.10
2019-05-22T20:10:31.651Z,12.00
2019-05-22T20:13:04.193Z,11.90
2019-05-22T20:15:36.238Z,11.80
2019-05-22T20:18:07.837Z,11.80
2019-05-22T20:20:38.068Z,11.70
2019-05-22T20:23:11.391Z,11.70
2019-05-22T20:25:43.065Z,11.70
2019-05-22T20:28:13.669Z,11.70
2019-05-22T20:30:46.474Z,11.60
2019-05-22T20:33:16.544Z,11.60
2019-05-22T20:35:48.428Z,11.50
2019-05-22T20:38:18.680Z,11.50
2019-05-22T20:40:48.767Z,11.40
2019-05-22T20:43:20.443Z,11.30
2019-05-22T20:45:53.551Z,11.20
2019-05-22T20:48:28.224Z,11.20
2019-05-22T20:50:59.098Z,11.10
2019-05-22T20:53:30.275Z,11.00
2019-05-22T20:55:58.734Z,11.00
2019-05-22T20:58:30.470Z,10.90
2019-05-22T21:00:58.844Z,10.90
2019-05-22T21:03:27.622Z,10.80
2019-05-22T21:05:56.591Z,10.80
2019-05-22T21:08:26.746Z,10.80
2019-05-22T21:10:56.272Z,10.70
2019-05-22T21:13:24.961Z,10.70
2019-05-22T21:15:54.903Z,10.60
2019-05-22T21:18:27.898Z,10.60
2019-05-22T21:20:57.019Z,10.60
2019-05-22T21:23:25.563Z,10.50
2019-05-22T21:25:54.158Z,10.40
2019-05-22T21:28:23.399Z,10.40
2019-05-22T21:30:54.083Z,10.30
2019-05-22T21:33:23.331Z,10.20
2019-05-22T21:35:52.645Z,10.20
2019-05-22T21:38:21.177Z,10.10
2019-05-22T21:40:49.507Z,10.20
2019-05-22T21:43:17.783Z,10.20
2019-05-22T21:45:46.973Z,10.20
2019-05-22T21:48:15.739Z,10.20
2019-05-22T21:50:44.940Z,10.10
2019-05-22T21:53:14.589Z,10.10
2019-05-22T21:55:45.598Z,10.10
2019-05-22T21:58:14.663Z,10.10
2019-05-22T22:01:03.158Z,10.00
2019-05-22T22:03:36.499Z,10.00
2019-05-22T22:06:05.615Z,9.90
2019-05-22T22:08:34.191Z,9.80
2019-05-22T22:11:03.772Z,9.80
2019-05-22T22:13:34.717Z,9.80
2019-05-22T22:16:03.868Z,9.90
2019-05-22T22:18:32.520Z,9.80
2019-05-22T22:21:01.072Z,9.80
2019-05-22T22:23:30.996Z,9.90
2019-05-22T22:26:01.399Z,9.80
2019-05-22T22:28:31.154Z,9.80
2019-05-22T22:31:03.615Z,9.70
2019-05-22T22:33:33.750Z,9.70
2019-05-22T22:36:03.433Z,9.70
2019-05-22T22:38:35.336Z,9.70
2019-05-22T22:41:04.609Z,9.70
2019-05-22T22:43:33.005Z,9.70
2019-05-22T22:46:09.212Z,9.70
2019-05-22T22:48:39.474Z,9.60
2019-05-22T22:51:09.563Z,9.70
2019-05-22T22:53:38.980Z,9.70
2019-05-22T22:56:09.220Z,9.60
2019-05-22T22:58:38.520Z,9.60
2019-05-22T23:01:10.266Z,9.50
2019-05-22T23:03:39.667Z,9.40
2019-05-22T23:06:09.139Z,9.30
2019-05-22T23:08:37.858Z,9.30
2019-05-22T23:11:06.980Z,9.40
2019-05-22T23:13:37.663Z,9.40
2019-05-22T23:16:10.212Z,9.40
2019-05-22T23:18:47.982Z,9.40
2019-05-22T23:21:16.043Z,9.30
2019-05-22T23:23:46.198Z,9.40
2019-05-22T23:26:16.572Z,9.40
2019-05-22T23:28:46.759Z,9.30
2019-05-22T23:31:15.224Z,9.20
2019-05-22T23:33:44.234Z,9.20
2019-05-22T23:36:13.671Z,9.20
2019-05-22T23:38:42.048Z,9.20
2019-05-22T23:41:11.237Z,9.20
2019-05-22T23:43:40.492Z,9.20
2019-05-22T23:46:10.204Z,9.20
2019-05-22T23:48:38.827Z,9.10
2019-05-22T23:51:07.205Z,9.10
2019-05-22T23:53:36.563Z,9.00
2019-05-22T23:56:06.514Z,9.00
2019-05-22T23:58:49.810Z,9.00
